Bon Ami, Texas
Current Conditions -  °F | °C
As of 10:15 AM on Thursday 29 Jan 2015 (Local Time) from KJAS Reporting Station
Broken Clouds Broken Clouds  
Wind Chill: 61°   Ceiling: 800
Heat Index: 61°   Visibility: 10mi
Dew Point: 60°   Wind: 7mph
Humidity: 97%   Direction: 220°SW
Pressure: 30.27"   Gusts: NA
Location:  30.7133°N, 93.9985°W
Report Text: KJAS 291615Z AUTO 22006KT 190V250 10SM BKN008 16/16 A3027 RMK AO2 T01600156
Loading
Personal Weather Stations






























Interactive Weather Map New forecast layout! Learn more

10-Day Weather Forecast

Advertisements
Track Severe Weather on mobile